Time;durP1;ratioP1;P1;durP2;ratioP2;P2;SDS_P1;SDS_P2;PMS_P1;PMS_P2;Temp;Humidity;BMP_temperature;BMP_pressure;BME280_temperature;BME280_humidity;BME280_pressure;Samples;Min_cycle;Max_cycle;Signal;HPM_P1;HPM_P2
2021/03/06 00:00:11;;;;;;;2.33;1.50;;;;;;;-3.54;78.09;101839.22;5071506;28;20209;-65
2021/03/06 00:02:38;;;;;;;0.80;0.80;;;;;;;-3.56;77.76;101833.09;5068816;28;20200;-64
2021/03/06 00:05:08;;;;;;;2.20;0.90;;;;;;;-3.61;77.86;101839.19;5069333;28;20205;-64
2021/03/06 00:07:35;;;;;;;1.10;1.00;;;;;;;-3.70;77.44;101818.09;5060447;28;20193;-64
2021/03/06 00:10:03;;;;;;;2.87;1.17;;;;;;;-3.60;77.96;101828.69;5070429;28;20220;-65
2021/03/06 00:12:31;;;;;;;1.50;0.87;;;;;;;-3.56;78.60;101825.22;5070636;28;20304;-64
2021/03/06 00:14:58;;;;;;;1.13;0.80;;;;;;;-3.57;79.22;101810.34;5058378;28;20563;-64
2021/03/06 00:17:25;;;;;;;84.90;33.90;;;;;;;-3.41;78.78;101813.06;5058406;28;20575;-69
2021/03/06 00:19:53;;;;;;;29.83;9.83;;;;;;;-3.45;78.10;101814.78;5058108;28;20221;-71
2021/03/06 00:22:20;;;;;;;2.53;1.33;;;;;;;-3.75;77.54;101769.09;5071441;28;20856;-69
2021/03/06 00:24:47;;;;;;;1.47;1.27;;;;;;;-3.49;78.14;101798.13;5071201;28;20197;-69
2021/03/06 00:27:15;;;;;;;4.73;1.97;;;;;;;-3.47;78.04;101806.03;5068899;28;20422;-69
2021/03/06 00:29:43;;;;;;;5.47;1.47;;;;;;;-3.57;77.78;101797.22;5057518;28;20201;-69
2021/03/06 00:32:10;;;;;;;5.30;0.60;;;;;;;-3.53;77.77;101809.50;5070489;28;20218;-69
2021/03/06 00:34:38;;;;;;;2.70;1.50;;;;;;;-3.53;77.96;101799.00;5055935;28;20206;-69
2021/03/06 00:37:05;;;;;;;1.87;1.20;;;;;;;-3.54;78.11;101804.22;5051606;28;20554;-69
2021/03/06 00:39:32;;;;;;;4.83;2.77;;;;;;;-3.51;78.26;101805.13;5051687;28;20233;-69
2021/03/06 00:41:59;;;;;;;3.50;2.23;;;;;;;-3.57;78.45;101786.72;5059676;28;20567;-69
2021/03/06 00:44:26;;;;;;;1.63;1.53;;;;;;;-3.39;78.29;101792.94;5071356;28;20235;-69
2021/03/06 00:46:56;;;;;;;1.70;1.30;;;;;;;-3.33;78.48;101799.13;5069136;28;20201;-69
2021/03/06 00:49:23;;;;;;;7.10;4.27;;;;;;;-3.27;78.32;101800.91;5060681;28;20293;-69
2021/03/06 00:51:51;;;;;;;3.30;2.20;;;;;;;-3.32;78.16;101790.38;5079362;28;20244;-69
2021/03/06 00:54:21;;;;;;;0.77;0.77;;;;;;;-3.37;77.41;101794.69;5066921;28;20287;-69
2021/03/06 00:56:49;;;;;;;2.13;1.17;;;;;;;-3.36;78.01;101798.25;5061019;28;20189;-69
2021/03/06 00:59:18;;;;;;;0.83;0.67;;;;;;;-3.35;78.25;101792.13;5069944;28;20617;-69
2021/03/06 01:01:46;;;;;;;2.43;1.00;;;;;;;-3.35;78.16;101777.25;5065010;28;20181;-69
2021/03/06 01:04:15;;;;;;;0.50;0.50;;;;;;;-3.34;77.88;101779.00;5068615;28;20293;-69
2021/03/06 01:06:42;;;;;;;3.20;0.90;;;;;;;-3.40;77.42;101788.56;5070534;28;20208;-69
2021/03/06 01:09:10;;;;;;;17.30;1.40;;;;;;;-3.82;76.86;101730.56;5070528;28;20673;-69
2021/03/06 01:11:37;;;;;;;0.67;0.67;;;;;;;-3.55;77.18;101771.84;5069782;28;20682;-69
2021/03/06 01:14:04;;;;;;;1.53;0.63;;;;;;;-3.56;77.17;101770.09;5069919;28;20296;-69
2021/03/06 01:16:32;;;;;;;1.67;1.07;;;;;;;-3.58;77.51;101763.97;5059327;28;20205;-69
2021/03/06 01:18:59;;;;;;;2.37;0.57;;;;;;;-3.50;77.79;101767.50;5066290;28;20568;-69
2021/03/06 01:21:27;;;;;;;1.83;0.70;;;;;;;-3.51;78.17;101764.88;5068659;28;20225;-69
2021/03/06 01:23:54;;;;;;;1.23;0.93;;;;;;;-3.52;78.11;101758.75;5070805;28;20203;-69
2021/03/06 01:26:21;;;;;;;1.43;0.93;;;;;;;-3.52;77.81;101757.88;5069475;28;20221;-69
2021/03/06 01:28:49;;;;;;;0.83;0.60;;;;;;;-3.45;77.98;101760.53;5060460;28;20212;-69
2021/03/06 01:31:16;;;;;;;0.70;0.67;;;;;;;-3.36;78.10;101758.84;5065178;28;20275;-69
2021/03/06 01:33:43;;;;;;;0.43;0.43;;;;;;;-3.29;77.99;101751.00;5067586;28;20753;-70
2021/03/06 01:36:10;;;;;;;1.10;0.47;;;;;;;-3.22;78.14;101754.53;5070260;28;20241;-70
2021/03/06 01:38:38;;;;;;;0.27;0.27;;;;;;;-3.16;78.01;101746.69;5069158;28;20230;-70
2021/03/06 01:41:05;;;;;;;0.23;0.23;;;;;;;-3.08;78.23;101747.59;5070290;28;20201;-69
2021/03/06 01:43:33;;;;;;;5.07;0.53;;;;;;;-3.09;77.73;101721.31;5069403;28;20559;-69
2021/03/06 01:46:00;;;;;;;0.53;0.37;;;;;;;-2.99;77.60;101724.00;5069391;28;20279;-70
2021/03/06 01:48:28;;;;;;;1.03;0.60;;;;;;;-2.87;77.64;101729.28;5069690;28;20202;-70
2021/03/06 01:50:55;;;;;;;0.33;0.33;;;;;;;-2.73;77.61;101726.72;5069646;28;20209;-69
2021/03/06 01:53:23;;;;;;;0.40;0.40;;;;;;;-2.64;77.91;101726.72;5067752;28;20224;-65
2021/03/06 01:55:51;;;;;;;1999.90;999.90;;;;;;;-2.56;77.69;101721.47;5068780;28;20205;-65
2021/03/06 01:58:19;;;;;;;1142.93;246.43;;;;;;;-2.47;77.64;101721.47;5069547;28;20209;-65
2021/03/06 02:00:46;;;;;;;75.60;22.37;;;;;;;-2.41;77.54;101713.63;5067882;28;20197;-65
2021/03/06 02:03:14;;;;;;;21.10;8.80;;;;;;;-2.31;77.46;101706.59;5068052;28;20201;-69
2021/03/06 02:05:43;;;;;;;16.10;6.23;;;;;;;-2.22;77.12;101703.97;5069225;28;20228;-69
2021/03/06 02:08:11;;;;;;;5.03;1.33;;;;;;;-2.24;76.87;101690.81;5068526;28;20232;-70
2021/03/06 02:10:42;;;;;;;5.67;2.67;;;;;;;-2.06;77.50;101704.84;5068619;28;20207;-70
2021/03/06 02:13:22;;;;;;;4.13;2.53;;;;;;;-2.11;77.23;101682.94;5062444;28;20582;-70
2021/03/06 02:16:06;;;;;;;6.93;2.53;;;;;;;-1.90;77.22;101704.81;5060912;28;20203;-70
2021/03/06 02:18:42;;;;;;;1.53;1.43;;;;;;;-1.80;77.25;101696.94;5060895;28;20674;-68
2021/03/06 02:21:29;;;;;;;16.20;10.17;;;;;;;-1.75;77.19;101693.41;5054528;28;20201;-69
2021/03/06 02:24:29;;;;;;;3.60;2.80;;;;;;;-1.73;76.75;101686.38;5059271;28;20255;-69
2021/03/06 02:27:06;;;;;;;1.27;1.17;;;;;;;-1.73;76.46;101681.13;5060934;28;20682;-69
2021/03/06 02:29:42;;;;;;;1.27;0.57;;;;;;;-1.74;76.24;101676.72;5063547;28;20231;-70
2021/03/06 02:32:15;;;;;;;1.23;1.13;;;;;;;-1.72;76.15;101674.97;5071099;28;20233;-69
2021/03/06 02:34:47;;;;;;;2.20;1.80;;;;;;;-1.65;76.42;101665.28;5065230;28;20198;-69
2021/03/06 02:37:17;;;;;;;3.77;2.90;;;;;;;-2.08;76.59;101578.56;5067839;28;20202;-69
2021/03/06 02:39:48;;;;;;;2.47;2.27;;;;;;;-1.58;76.28;101662.63;5067749;28;20194;-70
2021/03/06 02:42:20;;;;;;;3.23;2.93;;;;;;;-1.54;75.88;101665.25;5060218;28;20203;-70
2021/03/06 02:44:49;;;;;;;1.33;1.27;;;;;;;-1.54;75.78;101657.34;5049533;28;20647;-70
2021/03/06 02:47:17;;;;;;;0.60;0.60;;;;;;;-1.67;75.94;101628.44;5067456;28;20189;-69
2021/03/06 02:49:50;;;;;;;0.50;0.43;;;;;;;-1.56;75.78;101645.06;5055624;28;20272;-70
2021/03/06 02:52:18;;;;;;;0.50;0.50;;;;;;;-1.54;76.13;101639.78;5051091;28;20218;-70
2021/03/06 02:54:45;;;;;;;1.53;0.83;;;;;;;-1.52;76.24;101629.28;5055836;28;20276;-70
2021/03/06 02:57:23;;;;;;;0.50;0.50;;;;;;;-1.52;76.31;101624.03;5067975;28;20578;-69
2021/03/06 03:00:12;;;;;;;0.67;0.67;;;;;;;-1.53;76.17;101627.50;5068732;28;20287;-69
2021/03/06 03:02:48;;;;;;;0.83;0.57;;;;;;;-1.60;76.21;101619.63;5069043;28;20281;-69
2021/03/06 03:05:25;;;;;;;1.70;0.50;;;;;;;-1.64;76.13;101620.53;5068825;28;20204;-70
2021/03/06 03:08:02;;;;;;;1.30;0.87;;;;;;;-1.60;76.36;101624.03;5070194;28;20576;-69
2021/03/06 03:10:34;;;;;;;1.97;0.43;;;;;;;-1.79;76.30;101585.50;5067714;28;20279;-65
2021/03/06 03:13:09;;;;;;;2.20;0.60;;;;;;;-1.60;76.32;101617.00;5069796;28;20618;-65
2021/03/06 03:15:45;;;;;;;1.07;0.90;;;;;;;-1.63;76.36;101617.00;5062433;28;20258;-69
2021/03/06 03:18:19;;;;;;;0.20;0.20;;;;;;;-1.64;76.40;101610.00;5069082;28;20659;-69
2021/03/06 03:20:51;;;;;;;1.47;0.57;;;;;;;-1.66;75.91;101606.50;5070692;28;20727;-69
2021/03/06 03:23:23;;;;;;;2.23;0.77;;;;;;;-1.72;75.73;101596.00;5060960;28;20213;-66
2021/03/06 03:26:04;;;;;;;0.60;0.43;;;;;;;-1.67;76.12;101599.47;5050154;28;20687;-69
2021/03/06 03:28:33;;;;;;;4.80;0.70;;;;;;;-1.64;76.35;101594.19;5065817;28;20202;-65
2021/03/06 03:31:03;;;;;;;0.30;0.30;;;;;;;-1.68;75.97;101597.72;5068546;28;20200;-66
2021/03/06 03:33:32;;;;;;;52.33;30.33;;;;;;;-1.64;76.35;101594.19;5049450;28;20257;-70
2021/03/06 03:36:01;;;;;;;316.00;105.83;;;;;;;-1.60;76.55;101576.63;5062006;28;20233;-66
2021/03/06 03:38:29;;;;;;;35.57;12.47;;;;;;;-1.62;76.47;101592.44;5063143;28;20203;-70
2021/03/06 03:40:59;;;;;;;4.40;3.13;;;;;;;-1.61;76.28;101582.78;5066131;28;20568;-70
2021/03/06 03:43:27;;;;;;;2.87;2.53;;;;;;;-1.63;76.47;101566.13;5068514;28;20270;-70
2021/03/06 03:45:55;;;;;;;1.30;1.20;;;;;;;-1.51;76.42;101578.38;5068283;28;20222;-70
2021/03/06 03:48:24;;;;;;;0.70;0.70;;;;;;;-1.47;76.10;101565.19;5065840;28;20197;-70
2021/03/06 03:50:52;;;;;;;3.43;3.13;;;;;;;-1.63;76.00;101531.88;5076381;28;20236;-70
2021/03/06 03:53:20;;;;;;;1.97;1.63;;;;;;;-1.36;75.80;101575.63;5067368;28;20300;-66
2021/03/06 03:55:48;;;;;;;2.80;1.00;;;;;;;-1.36;75.89;101563.34;5072793;28;20743;-66
2021/03/06 03:58:15;;;;;;;1.03;0.77;;;;;;;-1.32;75.92;101553.66;5071678;28;20197;-65
2021/03/06 04:00:43;;;;;;;2.67;1.43;;;;;;;-1.34;75.80;101555.44;5072928;28;20568;-70
2021/03/06 04:03:15;;;;;;;1.17;0.80;;;;;;;-1.31;75.66;101552.78;5070965;28;20198;-69
2021/03/06 04:05:43;;;;;;;1.33;0.70;;;;;;;-1.36;75.28;101551.94;5072275;28;20197;-70
2021/03/06 04:08:10;;;;;;;1.20;0.80;;;;;;;-1.40;75.10;101539.66;5071837;28;20201;-70
2021/03/06 04:10:37;;;;;;;2.70;1.20;;;;;;;-1.33;75.72;101541.38;5064285;28;20208;-69
2021/03/06 04:13:06;;;;;;;0.70;0.70;;;;;;;-1.28;75.95;101540.47;5066695;28;20304;-70
2021/03/06 04:15:33;;;;;;;1.50;1.40;;;;;;;-1.30;75.24;101521.16;5072431;28;20248;-70
2021/03/06 04:18:02;;;;;;;0.57;0.50;;;;;;;-1.29;75.33;101525.53;5071185;28;20234;-70
2021/03/06 04:20:30;;;;;;;0.70;0.70;;;;;;;-1.27;75.44;101517.63;5071665;28;20205;-70
2021/03/06 04:22:58;;;;;;;1.23;0.70;;;;;;;-1.23;75.89;101515.84;5064787;28;20620;-70
2021/03/06 04:25:25;;;;;;;0.50;0.50;;;;;;;-1.19;76.23;101504.41;5064249;28;20553;-70
2021/03/06 04:27:55;;;;;;;0.70;0.70;;;;;;;-1.35;76.24;101472.03;5070246;28;20204;-70
2021/03/06 04:30:23;;;;;;;0.50;0.50;;;;;;;-1.20;76.28;101493.00;5072008;28;20280;-70
2021/03/06 04:32:50;;;;;;;4.47;2.23;;;;;;;-1.24;75.34;101501.78;5069984;28;20215;-70
2021/03/06 04:35:17;;;;;;;3.57;1.90;;;;;;;-1.22;75.51;101497.41;5061542;28;20577;-66
2021/03/06 04:37:45;;;;;;;0.50;0.50;;;;;;;-1.22;75.66;101496.50;5071345;28;20205;-66
2021/03/06 04:40:15;;;;;;;1.03;0.50;;;;;;;-1.33;75.21;101488.69;5071223;28;20250;-66
2021/03/06 04:42:42;;;;;;;0.40;0.40;;;;;;;-1.30;75.83;101491.31;5070607;28;20193;-66
2021/03/06 04:45:10;;;;;;;1.03;0.50;;;;;;;-1.31;75.73;101479.03;5071530;28;20571;-66
2021/03/06 04:47:45;;;;;;;2.73;0.67;;;;;;;-1.33;76.00;101475.53;5070465;28;20251;-70
2021/03/06 04:50:14;;;;;;;0.73;0.47;;;;;;;-1.32;76.28;101467.59;5071262;28;20205;-70
2021/03/06 04:52:41;;;;;;;0.53;0.53;;;;;;;-1.33;75.94;101470.25;5068793;28;20274;-70
2021/03/06 04:55:09;;;;;;;0.27;0.27;;;;;;;-1.43;76.06;101458.06;5071093;28;20571;-66
2021/03/06 04:57:38;;;;;;;7.53;0.57;;;;;;;-1.34;76.07;101471.16;5068756;28;20203;-70
2021/03/06 05:00:07;;;;;;;0.30;0.30;;;;;;;-1.42;75.88;101459.78;5058906;28;20272;-70
2021/03/06 05:02:35;;;;;;;0.50;0.50;;;;;;;-1.34;76.16;101466.75;5063539;28;20642;-70
2021/03/06 05:05:04;;;;;;;0.40;0.40;;;;;;;-1.38;76.07;101453.63;5065358;28;20201;-70
2021/03/06 05:07:31;;;;;;;0.57;0.50;;;;;;;-1.35;76.32;101443.06;5069025;28;20221;-71
2021/03/06 05:09:59;;;;;;;0.60;0.50;;;;;;;-1.27;76.53;101444.72;5060786;28;20621;-66
2021/03/06 05:12:26;;;;;;;1.10;0.50;;;;;;;-1.27;76.80;101430.69;5059238;28;20306;-67
2021/03/06 05:14:54;;;;;;;6.80;0.67;;;;;;;-1.25;76.65;101428.91;5064873;28;20193;-66
2021/03/06 05:17:21;;;;;;;0.40;0.40;;;;;;;-1.18;76.78;101432.41;5070940;28;20280;-66
2021/03/06 05:19:49;;;;;;;30.90;15.63;;;;;;;-1.22;76.93;101428.91;5066766;28;20853;-66
2021/03/06 05:22:16;;;;;;;4.37;2.70;;;;;;;-1.15;76.65;101427.97;5061841;28;20281;-66
2021/03/06 05:24:44;;;;;;;0.80;0.80;;;;;;;-1.10;77.21;101415.63;5064253;28;20229;-67
2021/03/06 05:27:29;;;;;;;0.70;0.70;;;;;;;-1.08;76.99;101415.59;5063050;28;20190;-66
2021/03/06 05:29:57;;;;;;;1.20;1.07;;;;;;;-1.10;76.59;101401.56;5070916;28;20674;-66
2021/03/06 05:32:24;;;;;;;0.67;0.67;;;;;;;-0.98;77.18;101397.03;5063534;28;20300;-66
2021/03/06 05:34:51;;;;;;;1.87;1.73;;;;;;;-0.94;77.20;101414.56;5056968;28;20247;-66
2021/03/06 05:37:18;;;;;;;0.80;0.80;;;;;;;-0.83;76.80;101405.72;5069822;28;20199;-66
2021/03/06 05:39:46;;;;;;;3.27;2.97;;;;;;;-0.82;77.04;101394.28;5067503;28;22101;-66
2021/03/06 05:42:13;;;;;;;8.30;4.37;;;;;;;-0.71;77.23;101390.63;5068801;28;20204;-66
2021/03/06 05:44:42;;;;;;;10.17;7.23;;;;;;;-0.56;76.79;101393.97;5068674;28;20644;-67
2021/03/06 05:47:12;;;;;;;4.40;1.63;;;;;;;-0.50;76.54;101397.41;5063488;28;20233;-66
2021/03/06 05:49:40;;;;;;;5.67;1.37;;;;;;;-0.48;76.17;101393.00;5068726;28;20237;-66
2021/03/06 05:52:09;;;;;;;4.93;1.30;;;;;;;-0.43;76.32;101387.66;5069778;28;20226;-67
2021/03/06 05:54:37;;;;;;;2.80;1.17;;;;;;;-0.43;76.25;101383.25;5068502;28;20290;-66
2021/03/06 05:57:06;;;;;;;1.67;0.70;;;;;;;-0.40;76.61;101377.94;5067811;28;20288;-66
2021/03/06 05:59:35;;;;;;;0.90;0.90;;;;;;;-0.49;76.18;101349.03;5051391;28;20198;-66
2021/03/06 06:02:03;;;;;;;0.60;0.60;;;;;;;-0.21;75.93;101369.78;5067545;28;20199;-66
2021/03/06 06:04:33;;;;;;;0.77;0.77;;;;;;;-0.18;75.93;101364.47;5068346;28;20197;-66
2021/03/06 06:07:01;;;;;;;9.47;5.50;;;;;;;-0.11;75.67;101368.75;5060749;28;20228;-66
2021/03/06 06:09:29;;;;;;;2.40;2.20;;;;;;;-0.04;75.55;101368.66;5062045;28;20226;-66
2021/03/06 06:11:56;;;;;;;1.43;1.33;;;;;;;0.00;75.79;101364.22;5063685;28;20214;-66
2021/03/06 06:14:38;;;;;;;0.80;0.80;;;;;;;-0.06;75.36;101343.16;5057553;28;20687;-66
2021/03/06 06:17:07;;;;;;;6.00;0.97;;;;;;;0.20;74.89;101356.88;5059561;28;20240;-66
2021/03/06 06:19:37;;;;;;;0.57;0.57;;;;;;;0.26;74.80;101356.75;5055817;28;20249;-66
2021/03/06 06:22:16;;;;;;;0.57;0.57;;;;;;;0.36;74.67;101359.28;5062239;28;20256;-65
2021/03/06 06:24:44;;;;;;;0.60;0.30;;;;;;;0.33;74.25;101351.41;5055604;28;20196;-65
2021/03/06 06:27:12;;;;;;;0.50;0.40;;;;;;;0.18;74.01;101316.41;5054911;28;20198;-66
2021/03/06 06:29:41;;;;;;;0.63;0.33;;;;;;;0.31;74.54;101340.88;5049600;28;20363;-66
2021/03/06 06:32:09;;;;;;;0.40;0.40;;;;;;;0.41;74.23;101345.09;5056259;28;20277;-66
2021/03/06 06:34:39;;;;;;;2.30;0.77;;;;;;;0.46;73.71;101334.44;5051984;28;20243;-67
2021/03/06 06:37:11;;;;;;;0.30;0.30;;;;;;;0.46;73.76;101324.75;5052576;28;20199;-66
2021/03/06 06:39:39;;;;;;;1.20;0.37;;;;;;;0.51;74.18;101319.38;5050836;28;20587;-66
2021/03/06 06:42:07;;;;;;;0.20;0.20;;;;;;;0.42;73.63;101306.34;5054440;28;20199;-66
2021/03/06 06:44:36;;;;;;;0.40;0.40;;;;;;;0.51;73.95;101309.69;5052573;28;20734;-66
2021/03/06 06:47:11;;;;;;;0.67;0.50;;;;;;;0.63;73.91;101305.97;5056418;28;20671;-66
2021/03/06 06:49:47;;;;;;;0.50;0.50;;;;;;;0.63;73.53;101307.75;5054153;28;20223;-66
2021/03/06 06:52:16;;;;;;;0.53;0.43;;;;;;;0.77;73.43;101296.00;5076068;28;20199;-66
2021/03/06 06:54:52;;;;;;;0.30;0.30;;;;;;;0.79;73.17;101299.50;5063682;28;20201;-66
2021/03/06 06:57:20;;;;;;;0.30;0.30;;;;;;;0.90;73.15;101302.78;5062033;28;20211;-66
2021/03/06 06:59:56;;;;;;;0.30;0.30;;;;;;;0.82;72.96;101280.94;5060468;28;20196;-66
2021/03/06 07:02:24;;;;;;;0.53;0.43;;;;;;;0.86;72.82;101301.13;5061006;28;20205;-66
2021/03/06 07:04:54;;;;;;;1.87;0.40;;;;;;;0.84;72.83;101265.03;5062514;28;20214;-65
2021/03/06 07:07:23;;;;;;;0.47;0.47;;;;;;;0.93;71.94;101276.34;5061973;28;20594;-74
2021/03/06 07:10:06;;;;;;;847.03;430.10;;;;;;;1.03;72.08;101277.00;5062345;28;20200;-66
2021/03/06 07:12:35;;;;;;;37.33;17.07;;;;;;;1.22;72.19;101299.56;5058163;28;20220;-65
2021/03/06 07:15:11;;;;;;;9.03;4.03;;;;;;;1.29;72.17;101289.72;5064213;28;20286;-66
2021/03/06 07:17:41;;;;;;;6.37;3.23;;;;;;;1.44;71.82;101294.66;5060941;28;20613;-66
2021/03/06 07:20:12;;;;;;;2.77;1.40;;;;;;;1.50;71.99;101302.47;5061270;28;20615;-67
2021/03/06 07:22:39;;;;;;;2.87;1.80;;;;;;;1.60;71.09;101291.69;5058905;28;20723;-66
2021/03/06 07:25:08;;;;;;;0.60;0.60;;;;;;;1.55;71.20;101276.78;5063123;28;20200;-67
2021/03/06 07:27:36;;;;;;;2.17;1.57;;;;;;;1.50;71.06;101246.88;5059866;28;20191;-66
2021/03/06 07:30:06;;;;;;;1.30;0.73;;;;;;;1.72;70.76;101281.69;5063473;28;20290;-66
2021/03/06 07:32:38;;;;;;;1.13;0.90;;;;;;;1.73;71.14;101269.31;5065024;28;20219;-66
2021/03/06 07:35:08;;;;;;;0.70;0.70;;;;;;;1.76;70.70;101270.13;5070660;28;20258;-66
2021/03/06 07:37:36;;;;;;;3.07;1.17;;;;;;;1.83;70.57;101276.13;5069051;28;20680;-66
2021/03/06 07:40:06;;;;;;;25.90;15.30;;;;;;;1.89;70.75;101265.44;5068584;28;20229;-67
2021/03/06 07:42:41;;;;;;;4.60;2.23;;;;;;;1.98;70.63;101267.84;5066082;28;20196;-67
2021/03/06 07:45:10;;;;;;;1.70;1.60;;;;;;;2.07;69.74;101264.97;5065041;28;20290;-66
2021/03/06 07:47:41;;;;;;;3.83;1.00;;;;;;;2.10;69.98;101264.88;5066575;28;20232;-66
2021/03/06 07:50:14;;;;;;;0.93;0.70;;;;;;;2.28;69.49;101252.09;5069161;28;20200;-66
2021/03/06 07:52:42;;;;;;;2.30;1.30;;;;;;;2.39;69.03;101250.03;5065652;28;20683;-66
2021/03/06 07:55:11;;;;;;;0.50;0.50;;;;;;;2.28;68.26;101207.94;5069238;28;20193;-66
2021/03/06 07:57:59;;;;;;;0.43;0.43;;;;;;;2.62;67.65;101238.84;5065429;28;20200;-66
2021/03/06 08:00:38;;;;;;;0.50;0.50;;;;;;;2.27;67.75;101184.13;5065026;28;21051;-66
2021/03/06 08:03:37;;;;;;;0.30;0.30;;;;;;;2.63;67.38;101232.63;5067662;28;20384;-66
2021/03/06 08:06:06;;;;;;;5.47;0.80;;;;;;;2.62;67.31;101230.88;5065792;28;20679;-66
2021/03/06 08:08:55;;;;;;;3.83;0.67;;;;;;;2.60;67.43;101216.81;5067765;28;20278;-66
2021/03/06 08:11:23;;;;;;;3.23;0.50;;;;;;;2.48;67.88;101191.50;5068764;28;20733;-66
2021/03/06 08:13:52;;;;;;;0.30;0.30;;;;;;;2.50;66.93;101184.38;5065582;28;20230;-66
2021/03/06 08:16:41;;;;;;;0.57;0.57;;;;;;;2.62;67.09;101196.41;5065801;28;20217;-66
2021/03/06 08:19:28;;;;;;;0.33;0.33;;;;;;;2.70;67.18;101197.06;5065277;28;20265;-67
2021/03/06 08:22:15;;;;;;;1.80;0.60;;;;;;;2.77;66.53;101194.22;5064746;28;20271;-67
2021/03/06 08:24:44;;;;;;;0.60;0.60;;;;;;;2.79;67.36;101180.91;5064295;28;20217;-66
2021/03/06 08:27:23;;;;;;;2.83;0.53;;;;;;;2.88;66.83;101175.34;5068564;28;20201;-67
2021/03/06 08:29:53;;;;;;;0.93;0.40;;;;;;;3.04;66.09;101175.75;5065675;28;20200;-67
2021/03/06 08:32:37;;;;;;;0.50;0.50;;;;;;;3.13;66.48;101183.44;5064340;28;20673;-67
2021/03/06 08:35:21;;;;;;;2.10;0.50;;;;;;;3.21;65.68;101183.22;5065415;28;20717;-66
2021/03/06 08:37:49;;;;;;;0.43;0.43;;;;;;;3.30;65.10;101169.66;5065186;28;20232;-66
2021/03/06 08:40:20;;;;;;;1.63;0.53;;;;;;;3.35;65.83;101179.19;5063099;28;20208;-67
2021/03/06 08:42:50;;;;;;;3.80;0.50;;;;;;;3.46;65.48;101167.41;5067016;28;20208;-66
2021/03/06 08:45:20;;;;;;;0.40;0.40;;;;;;;3.52;65.27;101161.88;5067065;28;20557;-66
2021/03/06 08:47:48;;;;;;;0.40;0.30;;;;;;;3.61;65.78;101154.47;5063185;28;20287;-67
2021/03/06 08:50:18;;;;;;;0.80;0.50;;;;;;;3.69;65.00;101151.59;5062972;28;20201;-70
2021/03/06 08:52:55;;;;;;;0.53;0.53;;;;;;;3.82;64.87;101134.31;5065345;28;20224;-70
2021/03/06 08:55:24;;;;;;;96.60;60.60;;;;;;;3.69;64.31;101095.84;5063766;28;20279;-69
2021/03/06 08:57:53;;;;;;;7.83;5.03;;;;;;;3.89;65.00;101113.72;5067076;28;20207;-70
2021/03/06 09:00:24;;;;;;;3.47;1.60;;;;;;;3.97;64.18;101112.53;5065607;28;20243;-69
2021/03/06 09:02:52;;;;;;;1.17;1.00;;;;;;;4.01;64.53;101113.31;5064536;28;20202;-69
2021/03/06 09:05:22;;;;;;;3.10;1.17;;;;;;;4.21;63.85;101126.75;5067319;28;20205;-69
2021/03/06 09:07:51;;;;;;;9.50;1.97;;;;;;;4.32;63.51;101118.44;5066448;28;20707;-69
2021/03/06 09:10:28;;;;;;;2.37;2.17;;;;;;;4.37;63.79;101108.50;5066614;28;20212;-70
2021/03/06 09:12:58;;;;;;;0.90;0.90;;;;;;;4.12;63.71;101060.66;5062647;28;20209;-70
2021/03/06 09:15:32;;;;;;;1.43;0.80;;;;;;;4.44;63.73;101096.69;5061385;28;20291;-69
2021/03/06 09:18:00;;;;;;;1.33;0.70;;;;;;;4.55;63.29;101099.81;5063162;28;20654;-69
2021/03/06 09:20:30;;;;;;;1.20;0.90;;;;;;;4.60;62.73;101092.56;5064299;28;20197;-69
2021/03/06 09:22:57;;;;;;;5.30;0.90;;;;;;;4.57;62.62;101086.47;5063327;28;20271;-70
2021/03/06 09:25:32;;;;;;;0.80;0.80;;;;;;;4.66;62.47;101096.78;5065985;28;20207;-69
2021/03/06 09:28:00;;;;;;;3.03;1.17;;;;;;;4.75;62.43;101082.25;5063582;28;20287;-69
2021/03/06 09:30:33;;;;;;;5.60;1.40;;;;;;;4.77;61.87;101088.38;5062905;28;20202;-70
2021/03/06 09:33:00;;;;;;;2.70;0.60;;;;;;;4.81;62.21;101090.00;5064562;28;20300;-69
2021/03/06 09:35:28;;;;;;;0.73;0.60;;;;;;;4.73;61.98;101062.81;5065342;28;20264;-69
2021/03/06 09:38:11;;;;;;;4.53;0.50;;;;;;;4.91;61.53;101086.06;5061528;28;20260;-70
2021/03/06 09:40:44;;;;;;;2.73;0.50;;;;;;;4.77;61.96;101061.78;5061085;28;20209;-70
2021/03/06 09:43:30;;;;;;;0.87;0.57;;;;;;;5.00;61.86;101085.69;5056422;28;20194;-70
2021/03/06 09:45:59;;;;;;;0.30;0.30;;;;;;;5.02;61.69;101088.31;5056961;28;20225;-68
2021/03/06 09:48:27;;;;;;;1.50;0.33;;;;;;;5.01;61.63;101076.78;5059904;28;20196;-69
2021/03/06 09:50:58;;;;;;;0.60;0.27;;;;;;;5.07;61.14;101076.53;5058157;28;20217;-69
2021/03/06 09:53:27;;;;;;;2.00;0.60;;;;;;;5.08;61.70;101069.44;5056465;28;20243;-69
2021/03/06 09:56:07;;;;;;;4.07;0.60;;;;;;;5.20;61.71;101066.25;5064389;28;20236;-68
2021/03/06 09:58:34;;;;;;;0.50;0.50;;;;;;;5.33;61.29;101067.50;5066706;28;20581;-69
2021/03/06 10:01:20;;;;;;;0.33;0.33;;;;;;;5.35;61.72;101060.31;5057187;28;20201;-68
2021/03/06 10:03:50;;;;;;;0.50;0.50;;;;;;;5.40;61.30;101050.34;5059913;28;20211;-69
2021/03/06 10:06:20;;;;;;;0.67;0.50;;;;;;;5.45;61.95;101035.03;5061029;28;20226;-69
2021/03/06 10:08:53;;;;;;;2.33;0.50;;;;;;;5.34;61.50;100996.50;5069333;28;20649;-69
2021/03/06 10:11:29;;;;;;;2.87;0.47;;;;;;;5.57;60.95;101023.88;5064057;28;20681;-69
2021/03/06 10:13:56;;;;;;;3.03;0.63;;;;;;;5.45;61.04;100986.22;5062071;28;20767;-69
2021/03/06 10:16:24;;;;;;;0.67;0.67;;;;;;;5.64;60.96;101007.63;5062493;28;20198;-69
2021/03/06 10:18:52;;;;;;;0.93;0.50;;;;;;;5.68;61.04;101012.75;5068053;28;20208;-69
2021/03/06 10:21:22;;;;;;;2.90;0.67;;;;;;;5.82;60.55;101002.38;5067663;28;20252;-69
2021/03/06 10:23:50;;;;;;;1.80;0.40;;;;;;;5.70;60.67;100965.59;5065843;28;20222;-69
2021/03/06 10:26:23;;;;;;;0.50;0.50;;;;;;;5.88;61.13;100988.78;5066051;28;20619;-68
2021/03/06 10:28:53;;;;;;;0.83;0.43;;;;;;;5.97;60.62;100997.31;5064189;28;20682;-69
2021/03/06 10:31:39;;;;;;;0.50;0.50;;;;;;;6.02;60.59;100992.66;5054284;28;20269;-69
2021/03/06 10:34:21;;;;;;;1.53;0.50;;;;;;;6.08;60.40;100985.22;5058374;28;20246;-69
2021/03/06 10:37:12;;;;;;;0.87;0.47;;;;;;;6.07;61.01;100966.63;5064371;28;20256;-69
2021/03/06 10:39:56;;;;;;;3.20;0.97;;;;;;;6.20;59.89;100960.69;5057436;28;20231;-68
2021/03/06 10:42:26;;;;;;;0.47;0.47;;;;;;;6.29;60.39;100962.06;5058509;28;20219;-69
2021/03/06 10:44:53;;;;;;;0.33;0.23;;;;;;;6.38;59.60;100963.41;5060459;28;20221;-69
2021/03/06 10:47:21;;;;;;;0.63;0.50;;;;;;;6.50;60.25;100950.38;5055213;28;20281;-69
2021/03/06 10:49:49;;;;;;;0.43;0.40;;;;;;;6.61;59.59;100957.88;5065192;28;20260;-69
2021/03/06 10:52:25;;;;;;;0.30;0.30;;;;;;;6.70;59.56;100941.41;5064260;28;20195;-69
2021/03/06 10:54:55;;;;;;;0.47;0.47;;;;;;;6.70;59.37;100935.19;5052866;28;20260;-69
2021/03/06 10:57:22;;;;;;;0.47;0.47;;;;;;;6.83;58.38;100929.22;5063176;28;20191;-70
2021/03/06 10:59:50;;;;;;;17.13;8.20;;;;;;;6.86;59.08;100936.19;5059283;28;20261;-69
2021/03/06 11:02:28;;;;;;;5.40;1.50;;;;;;;6.84;58.88;100930.94;5066438;28;20293;-69
2021/03/06 11:05:11;;;;;;;2.20;0.90;;;;;;;6.97;58.58;100927.66;5067011;28;21069;-69
2021/03/06 11:07:38;;;;;;;0.60;0.60;;;;;;;7.05;58.21;100928.16;5062830;28;20203;-69
2021/03/06 11:10:06;;;;;;;0.80;0.80;;;;;;;7.08;58.22;100923.50;5062010;28;20203;-68
2021/03/06 11:12:34;;;;;;;2.30;1.30;;;;;;;7.26;57.69;100921.69;5060162;28;20207;-69
2021/03/06 11:15:12;;;;;;;4.27;0.80;;;;;;;7.33;57.49;100919.56;5061225;28;20718;-69
2021/03/06 11:17:40;;;;;;;4.43;3.07;;;;;;;7.36;57.90;100908.75;5064627;28;20208;-69
2021/03/06 11:20:09;;;;;;;0.83;0.83;;;;;;;7.52;57.20;100907.00;5068171;28;20232;-68
2021/03/06 11:22:37;;;;;;;2.93;1.10;;;;;;;7.60;56.77;100909.25;5063799;28;20233;-70
2021/03/06 11:25:05;;;;;;;0.60;0.60;;;;;;;7.62;57.08;100885.97;5066515;28;20219;-69
2021/03/06 11:27:46;;;;;;;5.53;1.03;;;;;;;7.45;56.98;100841.47;5064764;28;20567;-68
2021/03/06 11:30:16;;;;;;;2.40;1.27;;;;;;;7.72;57.37;100880.09;5062890;28;20287;-68
2021/03/06 11:32:45;;;;;;;0.80;0.50;;;;;;;7.84;56.27;100869.66;5058853;28;20225;-68
2021/03/06 11:35:13;;;;;;;0.90;0.90;;;;;;;7.81;56.90;100870.69;5063064;28;20271;-67
2021/03/06 11:37:41;;;;;;;2.43;1.10;;;;;;;7.87;57.01;100865.00;5063415;28;20691;-67
2021/03/06 11:40:10;;;;;;;1.50;0.83;;;;;;;7.98;56.54;100840.38;5064854;28;20200;-68
2021/03/06 11:42:38;;;;;;;2.40;2.20;;;;;;;8.05;56.56;100836.41;5064765;28;20669;-69